This is the latest recevied weather packets stored in our database for station/object SV6DBG-10. If no packets are shown the sender has not sent any weather packets the latest 1 day(s).
| Time | Temp. | Humidity | Pressure | Rain* | Wind** | Luminosity | Snow |
|---|---|---|---|---|---|---|---|
| 1778076909 | 25.56° C | 20% | 1019.4 hPa | - | - | - | - |
| 1778071508 | 24.44° C | 21% | 1020.2 hPa | - | - | - | - |
| 1778066107 | 24.44° C | 20% | 1020.5 hPa | - | - | - | - |
| 1778062506 | 26.67° C | 24% | 1020.6 hPa | - | - | - | - |
| 1778060706 | 27.22° C | 22% | 1020.8 hPa | - | - | - | - |
| 1778056205 | 25° C | 32% | 1020.9 hPa | - | - | - | - |
| 1778055305 | 23.33° C | 34% | 1020.9 hPa | - | - | - | - |
| 1778049904 | 27.22° C | 31% | 1020.7 hPa | - | - | - | - |
| 1778044503 | 16.67° C | 61% | 1020.9 hPa | - | - | - | - |
| 1778039101 | 12.22° C | 78% | 1020.6 hPa | - | - | - | - |
| 1778038201 | 12.78° C | 76% | 1020.5 hPa | - | - | - | - |
| 1778036400 | 12.78° C | 77% | 1020.5 hPa | - | - | - | - |
| 1778035500 | 13.33° C | 73% | 1020.3 hPa | - | - | - | - |
| 1778033699 | 13.33° C | 72% | 1020.4 hPa | - | - | - | - |
| 1778031899 | 13.33° C | 73% | 1020.4 hPa | - | - | - | - |
| 1778030999 | 13.33° C | 72% | 1020.5 hPa | - | - | - | - |
| 1778030099 | 13.33° C | 71% | 1020.6 hPa | - | - | - | - |
| 1778027398 | 13.33° C | 71% | 1020.8 hPa | - | - | - | - |
| 1778026498 | 13.89° C | 70% | 1020.9 hPa | - | - | - | - |
| 1778024698 | 13.89° C | 71% | 1020.9 hPa | - | - | - | - |
| 1778019297 | 14.44° C | 69% | 1021.4 hPa | - | - | - | - |
| 1778014795 | 15° C | 65% | 1021.4 hPa | - | - | - | - |
| 1778013895 | 15° C | 65% | 1021.4 hPa | - | - | - | - |
| 1778008494 | 15.56° C | 60% | 1021.1 hPa | - | - | - | - |
| 1778004893 | 16.11° C | 53% | 1020.5 hPa | - | - | - | - |
* Rain since midnight (hover to see other rain measurements)
** Current wind speed in m/s (hover to see current wind gust speed)